Time;durP1;ratioP1;P1;durP2;ratioP2;P2;SDS_P1;SDS_P2;PMS_P1;PMS_P2;Temp;Humidity;BMP_temperature;BMP_pressure;BME280_temperature;BME280_humidity;BME280_pressure;Samples;Min_cycle;Max_cycle;Signal;HPM_P1;HPM_P2
2022/01/10 00:01:15;;;;;;;0.30;0.30;;;;;;;18.72;42.61;100647.47;5146798;27;20042;-34
2022/01/10 00:03:42;;;;;;;0.20;0.20;;;;;;;18.72;42.64;100650.22;5141449;27;20050;-35
2022/01/10 00:06:08;;;;;;;0.20;0.20;;;;;;;18.72;42.51;100654.91;5143849;27;20039;-35
2022/01/10 00:08:34;;;;;;;0.20;0.20;;;;;;;18.73;42.42;100660.13;5143869;27;20051;-36
2022/01/10 00:11:00;;;;;;;0.20;0.20;;;;;;;18.73;42.46;100653.81;5143476;27;20051;-34
2022/01/10 00:13:25;;;;;;;0.20;0.20;;;;;;;18.72;42.51;100652.16;5140727;27;20259;-35
2022/01/10 00:15:51;;;;;;;0.20;0.20;;;;;;;18.72;42.76;100666.78;5142851;27;20050;-35
2022/01/10 00:18:17;;;;;;;0.20;0.20;;;;;;;18.72;42.73;100672.28;5137788;27;20144;-37
2022/01/10 00:20:42;;;;;;;0.30;0.30;;;;;;;18.72;42.70;100674.22;5125027;27;20039;-36
2022/01/10 00:23:09;;;;;;;0.30;0.30;;;;;;;18.71;42.49;100670.66;5123674;27;20051;-34
2022/01/10 00:25:35;;;;;;;0.30;0.30;;;;;;;18.72;42.66;100675.06;5107644;27;20047;-40
2022/01/10 00:28:01;;;;;;;0.20;0.20;;;;;;;18.73;42.57;100678.63;5124425;27;20506;-37
2022/01/10 00:30:26;;;;;;;0.20;0.20;;;;;;;18.72;42.51;100685.25;5123599;27;20051;-40
2022/01/10 00:32:52;;;;;;;0.30;0.30;;;;;;;18.73;42.44;100681.38;5104466;27;20485;-35
2022/01/10 00:35:18;;;;;;;0.30;0.30;;;;;;;18.71;42.50;100678.91;5122019;27;20128;-36
2022/01/10 00:37:44;;;;;;;0.28;0.28;;;;;;;18.72;42.48;100693.53;5082912;27;20108;-34
2022/01/10 00:40:12;;;;;;;0.28;0.28;;;;;;;18.71;42.74;100687.19;5107405;27;20050;-35
2022/01/10 00:42:38;;;;;;;0.20;0.20;;;;;;;18.72;42.67;100691.59;5102781;27;20227;-34
2022/01/10 00:45:13;;;;;;;0.20;0.20;;;;;;;18.72;42.68;100694.34;5115647;27;20490;-36
2022/01/10 00:47:39;;;;;;;0.20;0.20;;;;;;;18.71;42.53;100702.94;5120868;27;20336;-35
2022/01/10 00:50:06;;;;;;;0.30;0.30;;;;;;;18.71;42.62;100709.25;5123672;27;20405;-35
2022/01/10 00:52:31;;;;;;;0.30;0.30;;;;;;;18.72;42.52;100712.84;5117390;27;20051;-38
2022/01/10 00:54:57;;;;;;;0.20;0.20;;;;;;;18.72;42.57;100712.84;5122230;27;20045;-34
2022/01/10 00:57:22;;;;;;;0.20;0.20;;;;;;;18.73;42.55;100711.72;5117067;27;20052;-36
2022/01/10 00:59:48;;;;;;;0.22;0.22;;;;;;;18.72;42.69;100719.19;5124356;27;20520;-34
2022/01/10 01:02:14;;;;;;;0.20;0.20;;;;;;;18.71;42.51;100717.53;5111797;27;20472;-34
2022/01/10 01:04:40;;;;;;;0.20;0.20;;;;;;;18.72;42.59;100718.38;5112156;28;20089;-35
2022/01/10 01:07:06;;;;;;;0.20;0.20;;;;;;;18.71;42.42;100720.31;5119170;28;20074;-38
2022/01/10 01:09:32;;;;;;;0.30;0.30;;;;;;;18.72;42.68;100732.16;5110423;28;20667;-34
2022/01/10 01:12:14;;;;;;;0.30;0.30;;;;;;;18.71;42.70;100734.09;5109532;28;20051;-35
2022/01/10 01:17:45;;;;;;;0.20;0.20;;;;;;;18.71;42.56;100744.31;5168615;27;20202;-34
2022/01/10 01:20:20;;;;;;;0.20;0.20;;;;;;;18.71;42.48;100750.66;5137381;27;20054;-36
2022/01/10 01:25:32;;;;;;;0.20;0.20;;;;;;;18.73;42.49;100766.91;5121650;27;20046;-34
2022/01/10 01:27:58;;;;;;;0.20;0.20;;;;;;;18.71;42.65;100769.97;5147665;27;20058;-34
2022/01/10 01:30:24;;;;;;;0.25;0.25;;;;;;;18.72;42.63;100771.59;5149019;27;20062;-34
2022/01/10 01:32:50;;;;;;;0.20;0.20;;;;;;;18.71;42.59;100774.66;5148044;27;20046;-34
2022/01/10 01:35:15;;;;;;;0.20;0.20;;;;;;;18.71;42.49;100789.25;5151943;27;20069;-34
2022/01/10 01:37:41;;;;;;;0.20;0.20;;;;;;;18.72;42.71;100796.44;5131078;27;20047;-34
2022/01/10 01:40:09;;;;;;;0.20;0.20;;;;;;;18.72;42.65;100795.59;5149051;27;20414;-35
2022/01/10 01:42:39;;;;;;;0.20;0.20;;;;;;;18.73;42.60;100795.31;5139893;27;20071;-34
2022/01/10 01:45:08;;;;;;;0.20;0.20;;;;;;;18.71;42.65;100797.53;5147696;27;20251;-35
2022/01/10 01:47:34;;;;;;;0.20;0.20;;;;;;;18.71;42.62;100794.78;5136438;27;20458;-34
2022/01/10 01:49:59;;;;;;;0.20;0.20;;;;;;;18.71;42.60;100802.22;5131485;27;20121;-34
2022/01/10 01:52:26;;;;;;;0.20;0.20;;;;;;;18.71;42.61;100805.81;5131522;27;20510;-33
2022/01/10 01:54:52;;;;;;;0.20;0.20;;;;;;;18.72;42.70;100801.13;5144767;27;20035;-34
2022/01/10 01:57:19;;;;;;;0.20;0.20;;;;;;;18.72;42.56;100815.75;5135762;27;20045;-34
2022/01/10 01:59:45;;;;;;;0.20;0.20;;;;;;;18.72;42.69;100817.66;5134424;27;20070;-38
2022/01/10 02:02:10;;;;;;;0.20;0.20;;;;;;;18.72;42.77;100823.19;5131449;27;20124;-35
2022/01/10 02:04:36;;;;;;;0.20;0.20;;;;;;;18.72;42.64;100828.72;5143844;27;20039;-36
2022/01/10 02:07:03;;;;;;;0.20;0.20;;;;;;;18.71;42.56;100833.41;5151586;27;20466;-34
2022/01/10 02:09:28;;;;;;;0.22;0.22;;;;;;;18.71;42.66;100838.09;5149751;27;20035;-34
2022/01/10 02:11:54;;;;;;;0.30;0.30;;;;;;;18.71;42.65;100843.63;5148111;27;20042;-34
2022/01/10 02:14:20;;;;;;;0.20;0.20;;;;;;;18.72;42.53;100845.25;5142279;27;20039;-34
2022/01/10 02:16:53;;;;;;;0.20;0.20;;;;;;;18.71;42.61;100847.19;5151263;27;20461;-34
2022/01/10 02:19:19;;;;;;;0.20;0.20;;;;;;;18.71;42.67;100847.19;5139909;27;20047;-34
2022/01/10 02:21:45;;;;;;;0.30;0.30;;;;;;;18.72;42.40;100856.28;5138999;27;20042;-34
2022/01/10 02:24:10;;;;;;;0.20;0.20;;;;;;;18.71;42.60;100851.88;5140549;27;20057;-34
2022/01/10 02:26:39;;;;;;;0.28;0.28;;;;;;;18.71;42.73;100863.75;5119599;27;20085;-34
2022/01/10 02:29:06;;;;;;;0.30;0.30;;;;;;;18.71;42.57;100863.75;5126432;27;20044;-35
2022/01/10 02:31:40;;;;;;;0.25;0.25;;;;;;;18.71;42.38;100866.50;5125715;27;20085;-34
2022/01/10 02:34:06;;;;;;;0.20;0.20;;;;;;;18.72;42.60;100870.09;5108539;27;20040;-34
2022/01/10 02:36:32;;;;;;;0.20;0.20;;;;;;;18.71;42.44;100869.25;5089868;28;20046;-34
2022/01/10 02:39:00;;;;;;;0.20;0.20;;;;;;;18.72;42.61;100870.09;5124720;27;20047;-34
2022/01/10 02:41:28;;;;;;;0.28;0.28;;;;;;;18.71;42.54;100871.19;5129101;27;20038;-34
2022/01/10 02:43:55;;;;;;;0.20;0.20;;;;;;;18.71;42.50;100879.47;5123417;27;20460;-35
2022/01/10 02:46:21;;;;;;;0.30;0.30;;;;;;;18.71;42.50;100888.56;5103804;27;20048;-34
2022/01/10 02:48:47;;;;;;;0.20;0.20;;;;;;;18.72;42.41;100892.16;5105452;28;20057;-34
2022/01/10 02:51:13;;;;;;;0.20;0.20;;;;;;;18.72;42.60;100900.44;5110407;27;20071;-34
2022/01/10 02:53:39;;;;;;;0.20;0.20;;;;;;;18.71;42.43;100907.88;5107664;27;20061;-34
2022/01/10 02:56:05;;;;;;;0.20;0.20;;;;;;;18.71;42.47;100907.88;5125663;27;20043;-34
2022/01/10 02:58:31;;;;;;;0.20;0.20;;;;;;;18.71;42.52;100916.16;5094130;27;20104;-35
2022/01/10 03:00:57;;;;;;;0.20;0.20;;;;;;;18.72;42.41;100922.50;5095690;27;20545;-34
2022/01/10 03:03:26;;;;;;;0.20;0.20;;;;;;;18.71;42.62;100924.44;5128424;27;20072;-34
2022/01/10 03:05:51;;;;;;;0.20;0.20;;;;;;;18.71;42.41;100926.38;5094099;27;20044;-34
2022/01/10 03:08:17;;;;;;;0.30;0.30;;;;;;;18.71;42.80;100937.41;5127335;27;20171;-34
2022/01/10 03:10:43;;;;;;;0.20;0.20;;;;;;;18.72;42.74;100939.06;5126431;27;20062;-34
2022/01/10 03:13:08;;;;;;;0.20;0.20;;;;;;;18.71;42.75;100938.22;5124898;27;20051;-34
2022/01/10 03:15:34;;;;;;;0.20;0.20;;;;;;;18.71;42.31;100942.94;5127004;27;20051;-35
2022/01/10 03:18:00;;;;;;;0.20;0.20;;;;;;;18.72;42.59;100941.81;5123947;27;20039;-34
2022/01/10 03:20:25;;;;;;;0.20;0.20;;;;;;;18.71;42.51;100948.44;5126483;27;20047;-34
2022/01/10 03:22:52;;;;;;;0.20;0.20;;;;;;;18.71;42.51;100951.19;5121856;27;20425;-34
2022/01/10 03:25:17;;;;;;;0.20;0.20;;;;;;;18.71;42.52;100956.72;5109287;27;20051;-35
2022/01/10 03:27:44;;;;;;;0.20;0.20;;;;;;;18.71;42.41;100963.06;5129814;27;20148;-34
2022/01/10 03:30:10;;;;;;;0.20;0.20;;;;;;;18.73;42.39;100965.53;5114395;27;20042;-34
2022/01/10 03:32:37;;;;;;;0.20;0.20;;;;;;;18.71;42.61;100968.56;5129617;27;20039;-35
2022/01/10 03:35:04;;;;;;;0.20;0.20;;;;;;;18.70;42.24;100969.69;5127030;27;20043;-35
2022/01/10 03:37:30;;;;;;;0.25;0.25;;;;;;;18.70;42.58;100975.19;5106786;27;20050;-35
2022/01/10 03:39:56;;;;;;;0.20;0.20;;;;;;;18.71;42.57;100971.34;5130832;27;20042;-34
2022/01/10 03:42:21;;;;;;;0.20;0.20;;;;;;;18.71;42.62;100973.28;5108950;27;20062;-34
2022/01/10 03:44:47;;;;;;;0.20;0.20;;;;;;;18.70;42.68;100975.19;5121791;27;20532;-35
2022/01/10 03:47:13;;;;;;;0.30;0.30;;;;;;;18.71;42.57;100976.03;5122259;27;20133;-34
2022/01/10 03:49:39;;;;;;;0.30;0.30;;;;;;;18.70;42.51;100986.25;5086431;27;20076;-34
2022/01/10 03:52:05;;;;;;;0.30;0.30;;;;;;;18.70;42.70;100994.50;5117456;27;20046;-35
2022/01/10 03:54:31;;;;;;;0.20;0.20;;;;;;;18.71;42.44;100993.41;5125934;27;20046;-34
2022/01/10 03:56:56;;;;;;;0.20;0.20;;;;;;;18.71;42.68;100998.09;5108628;27;20043;-34
2022/01/10 03:59:22;;;;;;;0.30;0.30;;;;;;;18.71;42.62;100992.59;5108642;27;20386;-34
2022/01/10 04:01:50;;;;;;;0.20;0.20;;;;;;;18.71;42.43;101004.44;5127215;27;20098;-34
2022/01/10 04:04:17;;;;;;;0.20;0.20;;;;;;;18.70;42.69;101005.56;5130258;27;20122;-34
2022/01/10 04:06:43;;;;;;;0.20;0.20;;;;;;;18.71;42.36;101011.88;5126190;27;20045;-34
2022/01/10 04:09:09;;;;;;;0.20;0.20;;;;;;;18.71;42.51;101020.16;5109687;27;20043;-35
2022/01/10 04:11:35;;;;;;;0.20;0.20;;;;;;;18.71;42.56;101025.69;5116847;27;20043;-34
2022/01/10 04:14:00;;;;;;;0.20;0.20;;;;;;;18.70;42.68;101024.84;5123073;27;20170;-35
2022/01/10 04:16:26;;;;;;;0.20;0.20;;;;;;;18.71;42.56;101028.44;5122613;27;20051;-34
2022/01/10 04:18:52;;;;;;;0.20;0.20;;;;;;;18.70;42.53;101037.81;5125792;27;20047;-34
2022/01/10 04:21:18;;;;;;;0.20;0.20;;;;;;;18.70;42.54;101049.69;5110900;27;20431;-33
2022/01/10 04:23:43;;;;;;;0.20;0.20;;;;;;;18.71;42.39;101050.50;5119849;27;20044;-39
2022/01/10 04:26:09;;;;;;;0.20;0.20;;;;;;;18.71;42.52;101064.31;5119320;27;20070;-39
2022/01/10 04:28:35;;;;;;;0.20;0.20;;;;;;;18.71;42.45;101067.06;5132047;27;20047;-34
2022/01/10 04:31:00;;;;;;;0.20;0.20;;;;;;;18.70;42.54;101069.00;5127442;27;20063;-34
2022/01/10 04:33:29;;;;;;;0.20;0.20;;;;;;;18.71;42.38;101078.09;5123191;27;20311;-34
2022/01/10 04:35:56;;;;;;;0.20;0.20;;;;;;;18.70;42.36;101081.97;5123182;27;20039;-34
2022/01/10 04:38:22;;;;;;;0.30;0.30;;;;;;;18.71;42.47;101086.38;5121103;27;20490;-35
2022/01/10 04:40:48;;;;;;;0.20;0.20;;;;;;;18.70;42.49;101085.56;5109856;27;20052;-34
2022/01/10 04:43:14;;;;;;;0.20;0.20;;;;;;;18.70;42.46;101093.00;5123724;27;20063;-34
2022/01/10 04:45:40;;;;;;;0.30;0.30;;;;;;;18.71;42.58;101100.16;5118998;27;20048;-34
2022/01/10 04:48:05;;;;;;;0.30;0.30;;;;;;;18.72;42.35;101107.34;5123050;27;20475;-35
2022/01/10 04:53:17;;;;;;;0.30;0.30;;;;;;;18.70;42.42;101117.84;5092867;27;20036;-34
2022/01/10 04:55:43;;;;;;;0.20;0.20;;;;;;;18.68;42.45;101123.56;5123634;27;20324;-35
2022/01/10 04:58:08;;;;;;;0.30;0.30;;;;;;;18.69;42.34;101125.25;5123880;27;20379;-37
2022/01/10 05:00:34;;;;;;;0.30;0.30;;;;;;;18.70;42.41;101137.97;5124912;27;20043;-35
2022/01/10 05:03:00;;;;;;;0.20;0.20;;;;;;;18.69;42.46;101146.47;5121684;27;20063;-34
2022/01/10 05:05:25;;;;;;;0.20;0.20;;;;;;;18.70;42.48;101148.19;5123135;27;20047;-34
2022/01/10 05:07:51;;;;;;;0.20;0.20;;;;;;;18.71;42.33;101149.81;5124814;27;20116;-35
2022/01/10 05:10:17;;;;;;;0.20;0.20;;;;;;;18.71;42.54;101152.59;5129697;27;20054;-35
2022/01/10 05:12:43;;;;;;;0.20;0.20;;;;;;;18.70;42.33;101165.56;5123498;27;20107;-34
2022/01/10 05:15:09;;;;;;;0.20;0.20;;;;;;;18.71;42.32;101156.16;5125223;27;20474;-35
2022/01/10 05:17:35;;;;;;;0.20;0.20;;;;;;;18.71;42.41;101172.72;5125669;27;20058;-36
2022/01/10 05:20:00;;;;;;;0.20;0.20;;;;;;;18.69;42.38;101172.16;5123092;27;20082;-34
2022/01/10 05:22:26;;;;;;;0.20;0.20;;;;;;;18.70;42.63;101178.53;5122463;27;20502;-35
2022/01/10 05:24:52;;;;;;;0.20;0.20;;;;;;;18.70;42.43;101182.09;5127684;27;20043;-34
2022/01/10 05:27:18;;;;;;;0.20;0.20;;;;;;;18.70;42.59;101184.03;5122931;27;20109;-34
2022/01/10 05:29:43;;;;;;;0.20;0.20;;;;;;;18.70;42.57;101186.81;5123440;27;20054;-34
2022/01/10 05:32:10;;;;;;;0.30;0.30;;;;;;;18.69;42.47;101187.84;5118812;27;20058;-34
2022/01/10 05:34:35;;;;;;;0.20;0.20;;;;;;;18.70;42.67;101193.16;5122807;27;20201;-34
2022/01/10 05:37:01;;;;;;;0.20;0.20;;;;;;;18.70;42.66;101198.66;5124751;27;20476;-34
2022/01/10 05:39:27;;;;;;;0.20;0.20;;;;;;;18.70;42.62;101204.19;5125283;27;20486;-35
2022/01/10 05:41:52;;;;;;;0.20;0.20;;;;;;;18.71;42.33;101210.53;5126977;27;20047;-35
2022/01/10 05:44:18;;;;;;;0.20;0.20;;;;;;;18.70;42.39;101217.16;5116098;27;20052;-36
2022/01/10 05:46:46;;;;;;;0.20;0.20;;;;;;;18.70;42.51;101223.50;5110108;27;20038;-34
2022/01/10 05:49:13;;;;;;;0.20;0.20;;;;;;;18.70;42.45;101226.25;5120229;27;20091;-37
2022/01/10 05:51:39;;;;;;;0.20;0.20;;;;;;;18.71;42.54;101243.63;5104060;27;20051;-37
2022/01/10 05:54:06;;;;;;;0.20;0.20;;;;;;;18.70;42.37;101248.31;5120461;27;20111;-40
2022/01/10 05:56:33;;;;;;;0.20;0.20;;;;;;;18.70;42.34;101256.59;5103374;27;20113;-38
2022/01/10 05:58:59;;;;;;;0.20;0.20;;;;;;;18.71;42.43;101251.91;5125301;27;20039;-38
2022/01/10 06:01:25;;;;;;;0.20;0.20;;;;;;;18.70;42.43;101261.28;5127374;27;20043;-38
2022/01/10 06:03:51;;;;;;;0.20;0.20;;;;;;;18.70;42.39;101272.31;5127479;27;20043;-36
2022/01/10 06:06:16;;;;;;;0.20;0.20;;;;;;;18.69;42.51;101274.22;5126124;27;20482;-39
2022/01/10 06:08:42;;;;;;;0.20;0.20;;;;;;;18.70;42.37;101273.16;5125907;27;20387;-39
2022/01/10 06:11:08;;;;;;;0.20;0.20;;;;;;;18.69;42.54;101273.38;5127574;27;20069;-36
2022/01/10 06:13:34;;;;;;;0.20;0.20;;;;;;;18.71;42.33;101279.50;5106202;28;20043;-39
2022/01/10 06:15:59;;;;;;;0.20;0.20;;;;;;;18.69;42.53;101282.50;5131840;27;20385;-37
2022/01/10 06:18:25;;;;;;;0.20;0.20;;;;;;;18.71;42.50;101290.53;5122752;27;20666;-39
2022/01/10 06:20:51;;;;;;;0.20;0.20;;;;;;;18.70;42.55;101297.16;5129603;27;20043;-41
2022/01/10 06:23:16;;;;;;;0.20;0.20;;;;;;;18.71;42.61;101298.81;5124845;27;20079;-39
2022/01/10 06:25:42;;;;;;;0.20;0.20;;;;;;;18.71;42.26;101307.91;5127321;27;20429;-41
2022/01/10 06:28:08;;;;;;;0.30;0.30;;;;;;;18.70;42.46;101306.25;5126760;27;20035;-37
2022/01/10 06:30:34;;;;;;;0.20;0.20;;;;;;;18.70;42.55;101308.19;5126603;27;20104;-38
2022/01/10 06:33:00;;;;;;;0.20;0.20;;;;;;;18.72;42.69;101317.00;5089555;27;20073;-39
2022/01/10 06:35:31;;;;;;;0.20;0.20;;;;;;;18.71;42.54;101318.13;5107839;27;20157;-37
2022/01/10 06:37:57;;;;;;;0.20;0.20;;;;;;;18.70;42.31;101328.31;5124639;27;20047;-38
2022/01/10 06:40:22;;;;;;;0.20;0.20;;;;;;;18.70;42.46;101324.75;5127943;27;20504;-38
2022/01/10 06:42:48;;;;;;;0.20;0.20;;;;;;;18.71;42.26;101335.50;5124728;27;20209;-38
2022/01/10 06:45:16;;;;;;;0.20;0.20;;;;;;;18.70;42.50;101341.28;5122327;27;20206;-37
2022/01/10 06:47:42;;;;;;;0.20;0.20;;;;;;;18.70;42.32;101341.28;5120401;27;20520;-36
2022/01/10 06:50:08;;;;;;;0.20;0.20;;;;;;;18.70;42.53;101347.66;5123173;27;20047;-38
2022/01/10 06:52:34;;;;;;;0.25;0.25;;;;;;;18.69;42.31;101342.34;5093130;27;20531;-38
2022/01/10 06:55:00;;;;;;;0.20;0.20;;;;;;;18.70;42.20;101361.44;5116298;27;20031;-37
2022/01/10 06:57:26;;;;;;;0.20;0.20;;;;;;;18.70;42.20;101357.84;5112923;27;20455;-39
2022/01/10 06:59:52;;;;;;;0.20;0.20;;;;;;;18.70;42.31;101364.19;5120911;27;20066;-38
2022/01/10 07:02:18;;;;;;;0.20;0.20;;;;;;;18.69;42.24;101368.03;5098921;27;20492;-42
2022/01/10 07:04:44;;;;;;;0.30;0.30;;;;;;;18.75;41.88;101377.19;5111284;27;20126;-38
2022/01/10 07:07:09;;;;;;;0.20;0.20;;;;;;;18.76;41.89;101379.66;5104212;27;20047;-38
2022/01/10 07:09:35;;;;;;;0.20;0.20;;;;;;;18.74;42.03;101390.16;5090583;27;20043;-36
2022/01/10 07:12:01;;;;;;;0.30;0.30;;;;;;;18.72;42.15;101400.63;5094249;27;20466;-37
2022/01/10 07:14:29;;;;;;;0.30;0.30;;;;;;;18.73;41.97;101410.53;5093421;27;20046;-39
2022/01/10 07:16:55;;;;;;;0.30;0.30;;;;;;;18.73;41.91;101413.31;5111172;27;20105;-37
2022/01/10 07:19:22;;;;;;;0.20;0.20;;;;;;;18.73;42.23;101423.50;5097533;27;20051;-41
2022/01/10 07:21:48;;;;;;;0.20;0.20;;;;;;;18.74;42.05;101427.97;5113607;27;20079;-39
2022/01/10 07:24:14;;;;;;;0.30;0.30;;;;;;;18.73;42.02;101427.09;5090445;28;20082;-36
2022/01/10 07:26:40;;;;;;;0.20;0.20;;;;;;;18.74;42.08;101434.31;5095326;27;20050;-36
2022/01/10 07:29:07;;;;;;;0.25;0.25;;;;;;;18.74;42.25;101439.81;5092612;27;20346;-38
2022/01/10 07:31:34;;;;;;;0.20;0.20;;;;;;;18.73;42.25;101440.06;5109457;27;20101;-42
2022/01/10 07:34:00;;;;;;;0.20;0.20;;;;;;;18.73;42.20;101457.44;5110905;27;20364;-40
2022/01/10 07:36:26;;;;;;;0.20;0.20;;;;;;;18.73;42.04;101465.72;5092084;27;20067;-38
2022/01/10 07:38:51;;;;;;;0.20;0.20;;;;;;;18.74;42.10;101470.16;5091578;27;20122;-41
2022/01/10 07:41:17;;;;;;;0.30;0.30;;;;;;;18.72;42.08;101477.88;5106935;27;20067;-40
2022/01/10 07:43:43;;;;;;;0.30;0.30;;;;;;;18.74;42.05;101483.13;5101205;27;20047;-38
2022/01/10 07:46:11;;;;;;;0.20;0.20;;;;;;;18.73;42.24;101486.97;5108692;27;20047;-38
2022/01/10 07:48:39;;;;;;;0.20;0.20;;;;;;;18.73;42.28;101484.22;5108357;27;20047;-37
2022/01/10 07:51:08;;;;;;;0.20;0.20;;;;;;;18.72;42.21;101494.41;5086439;27;20050;-39
2022/01/10 07:53:36;;;;;;;0.20;0.20;;;;;;;18.73;42.01;101498.00;5104601;27;20131;-40
2022/01/10 07:56:03;;;;;;;0.30;0.30;;;;;;;18.72;42.16;101504.63;5082396;27;20043;-37
2022/01/10 07:58:29;;;;;;;0.30;0.30;;;;;;;18.72;41.96;101512.91;5067632;28;20588;-36
2022/01/10 08:00:54;;;;;;;0.30;0.30;;;;;;;18.73;41.82;101511.81;5102785;27;20135;-37
2022/01/10 08:03:21;;;;;;;0.30;0.30;;;;;;;18.72;41.95;101516.50;5095090;27;20058;-38
2022/01/10 08:05:46;;;;;;;0.20;0.20;;;;;;;18.73;41.73;101523.66;5101872;27;21661;-40
2022/01/10 08:08:12;;;;;;;0.30;0.30;;;;;;;18.73;42.03;101531.13;5108698;27;20511;-36
2022/01/10 08:10:38;;;;;;;0.20;0.20;;;;;;;18.73;41.89;101537.47;5112881;27;20050;-36
2022/01/10 08:13:05;;;;;;;0.20;0.20;;;;;;;18.73;41.86;101536.63;5107455;27;20542;-36
2022/01/10 08:15:31;;;;;;;0.20;0.20;;;;;;;18.73;41.80;101539.41;5108551;27;20595;-37
2022/01/10 08:17:57;;;;;;;0.20;0.20;;;;;;;18.73;42.04;101554.03;5109358;27;20388;-40
2022/01/10 08:20:23;;;;;;;0.30;0.30;;;;;;;18.72;41.95;101552.38;5092015;27;20042;-40
2022/01/10 08:22:49;;;;;;;0.20;0.20;;;;;;;18.72;41.81;101554.28;5105187;27;20043;-36
2022/01/10 08:25:14;;;;;;;0.22;0.22;;;;;;;18.73;41.89;101561.47;5108466;27;20043;-37
2022/01/10 08:27:40;;;;;;;0.28;0.28;;;;;;;18.72;41.71;101566.16;5092783;27;20145;-37
2022/01/10 08:30:06;;;;;;;0.22;0.22;;;;;;;18.72;41.79;101566.16;5110099;27;20066;-37
2022/01/10 08:32:32;;;;;;;0.20;0.20;;;;;;;18.73;41.92;101572.50;5108684;27;20451;-37
2022/01/10 08:34:58;;;;;;;0.30;0.30;;;;;;;18.72;41.96;101574.44;5109235;27;20474;-37
2022/01/10 08:37:24;;;;;;;0.30;0.30;;;;;;;18.71;41.73;101575.53;5109848;27;20241;-38
2022/01/10 08:39:51;;;;;;;0.40;0.40;;;;;;;18.72;41.79;101581.88;5091889;27;20106;-41
2022/01/10 08:42:19;;;;;;;0.20;0.20;;;;;;;18.72;41.79;101579.13;5107262;27;20035;-36
2022/01/10 08:44:45;;;;;;;0.20;0.20;;;;;;;18.72;41.88;101579.97;5087887;27;20470;-35
2022/01/10 08:47:11;;;;;;;0.30;0.30;;;;;;;18.71;41.90;101589.34;5091100;27;20058;-37
2022/01/10 08:49:36;;;;;;;0.30;0.30;;;;;;;18.72;41.83;101595.69;5112931;27;20130;-36
2022/01/10 08:52:03;;;;;;;0.22;0.22;;;;;;;18.72;41.98;101598.44;5091997;27;20054;-38
2022/01/10 08:54:29;;;;;;;0.20;0.20;;;;;;;18.72;41.77;101603.97;5105134;27;20047;-36
2022/01/10 08:56:54;;;;;;;0.30;0.30;;;;;;;18.72;41.81;101606.72;5107676;27;20040;-35
2022/01/10 08:59:20;;;;;;;0.30;0.30;;;;;;;18.71;41.97;101611.41;5091278;27;20595;-36
2022/01/10 09:01:46;;;;;;;0.30;0.30;;;;;;;18.71;41.91;101616.09;5073531;27;20075;-35
2022/01/10 09:04:16;;;;;;;0.30;0.30;;;;;;;18.72;41.88;101613.06;5085894;28;20101;-41
2022/01/10 09:06:43;;;;;;;0.20;0.20;;;;;;;18.72;41.92;101621.34;5089151;27;20074;-36
2022/01/10 09:09:09;;;;;;;0.30;0.30;;;;;;;18.72;41.89;101637.91;5058431;27;20066;-41
2022/01/10 09:11:34;;;;;;;0.25;0.25;;;;;;;18.72;42.01;101637.91;5101423;27;20050;-38
2022/01/10 09:14:00;;;;;;;0.20;0.20;;;;;;;18.71;41.83;101640.94;5108731;27;20062;-35
2022/01/10 09:16:26;;;;;;;0.30;0.30;;;;;;;18.72;41.86;101651.69;5112532;27;20463;-35
2022/01/10 09:18:51;;;;;;;0.20;0.20;;;;;;;18.71;41.81;101658.31;5113439;27;20055;-35
2022/01/10 09:21:17;;;;;;;0.20;0.20;;;;;;;18.71;41.58;101657.47;5113483;27;20504;-36
2022/01/10 09:23:43;;;;;;;0.30;0.30;;;;;;;18.71;41.71;101660.25;5108319;27;20107;-37
2022/01/10 09:26:08;;;;;;;0.20;0.20;;;;;;;18.72;41.84;101664.66;5111133;27;20058;-36
2022/01/10 09:28:34;;;;;;;0.22;0.22;;;;;;;18.71;41.89;101661.06;5107677;27;20115;-36
2022/01/10 09:31:00;;;;;;;0.20;0.20;;;;;;;18.72;41.78;101667.41;5108593;27;20154;-35
2022/01/10 09:33:27;;;;;;;0.20;0.20;;;;;;;18.70;41.70;101667.69;5108629;27;20047;-37
2022/01/10 09:35:53;;;;;;;0.20;0.20;;;;;;;18.71;41.81;101676.78;5102820;27;20148;-38
2022/01/10 09:38:19;;;;;;;0.20;0.20;;;;;;;18.74;42.39;101679.03;5108813;27;20047;-39
2022/01/10 09:40:44;;;;;;;0.30;0.30;;;;;;;18.75;41.98;101673.25;5107708;27;20416;-35
2022/01/10 09:43:18;;;;;;;0.20;0.20;;;;;;;18.83;42.50;101674.72;5105880;27;20138;-37
2022/01/10 09:45:45;;;;;;;0.20;0.20;;;;;;;18.83;42.95;101674.72;5094656;27;21576;-37
2022/01/10 09:48:11;;;;;;;0.20;0.20;;;;;;;18.83;42.67;101690.44;5106981;27;20405;-37
2022/01/10 09:50:36;;;;;;;0.20;0.20;;;;;;;18.84;42.48;101689.34;5095351;27;20058;-39
2022/01/10 09:53:03;;;;;;;0.20;0.20;;;;;;;18.85;42.40;101694.59;5088818;27;20051;-38
2022/01/10 09:55:31;;;;;;;0.30;0.30;;;;;;;18.86;42.34;101698.19;5097637;27;20051;-42
2022/01/10 09:57:58;;;;;;;0.30;0.30;;;;;;;18.87;42.36;101710.88;5108215;27;20057;-40
2022/01/10 10:00:24;;;;;;;0.20;0.20;;;;;;;18.87;42.42;101711.75;5095591;27;20080;-38
2022/01/10 10:02:50;;;;;;;0.30;0.30;;;;;;;18.88;42.43;101721.69;5108391;27;20044;-39
2022/01/10 10:05:16;;;;;;;0.20;0.20;;;;;;;18.88;42.20;101732.72;5086561;28;20478;-35
2022/01/10 10:07:43;;;;;;;0.20;0.20;;;;;;;18.90;42.27;101726.94;5084659;27;20086;-37
2022/01/10 10:10:11;;;;;;;0.20;0.20;;;;;;;18.91;42.20;101723.06;5112855;27;20043;-37
2022/01/10 10:12:38;;;;;;;0.20;0.20;;;;;;;18.91;42.04;101728.59;5104219;27;20116;-41
2022/01/10 10:15:06;;;;;;;0.20;0.20;;;;;;;18.93;41.98;101734.72;5086099;27;20274;-39
2022/01/10 10:17:35;;;;;;;0.20;0.20;;;;;;;18.93;42.09;101734.72;5114935;27;20080;-37
2022/01/10 10:20:06;;;;;;;0.20;0.20;;;;;;;18.94;41.90;101739.97;5098301;27;20526;-36
2022/01/10 10:22:32;;;;;;;0.22;0.22;;;;;;;18.95;41.81;101740.78;5111965;27;20082;-36
2022/01/10 10:24:58;;;;;;;0.20;0.20;;;;;;;18.95;42.15;101743.53;5106787;27;20489;-36
2022/01/10 10:27:24;;;;;;;0.20;0.20;;;;;;;18.97;42.07;101755.19;5119067;27;20050;-36
2022/01/10 10:30:28;;;;;;;0.20;0.20;;;;;;;18.97;41.47;101746.91;5097970;27;20055;-42
2022/01/10 10:33:11;;;;;;;0.20;0.20;;;;;;;19.05;41.41;101758.31;5112964;27;20049;-42
2022/01/10 10:35:37;;;;;;;0.20;0.20;;;;;;;19.07;41.47;101760.78;5108849;27;20569;-37
2022/01/10 10:38:03;;;;;;;0.20;0.20;;;;;;;19.09;41.35;101755.03;5083297;27;20047;-39
2022/01/10 10:40:29;;;;;;;0.20;0.20;;;;;;;19.14;41.35;101758.69;5090438;27;20150;-39
2022/01/10 10:42:58;;;;;;;0.20;0.20;;;;;;;19.16;41.50;101756.47;5093535;27;20044;-43
2022/01/10 10:45:25;;;;;;;0.20;0.20;;;;;;;19.15;41.64;101763.09;5064926;27;20081;-36
2022/01/10 10:47:51;;;;;;;0.20;0.20;;;;;;;19.16;41.46;101758.41;5110450;27;20047;-38
2022/01/10 10:50:17;;;;;;;0.20;0.20;;;;;;;19.15;41.59;101760.34;5101378;27;20050;-38
2022/01/10 10:52:43;;;;;;;0.20;0.20;;;;;;;19.17;41.52;101762.81;5071379;27;21085;-36
2022/01/10 10:55:12;;;;;;;0.20;0.20;;;;;;;19.17;41.58;101766.44;5073687;27;20048;-37
2022/01/10 10:57:38;;;;;;;0.20;0.20;;;;;;;19.18;41.71;101767.28;5094840;27;20099;-41
2022/01/10 11:00:10;;;;;;;0.20;0.20;;;;;;;19.18;41.67;101773.63;5089905;27;20047;-38
2022/01/10 11:02:35;;;;;;;0.20;0.20;;;;;;;19.19;41.40;101775.28;5111369;27;20261;-41
2022/01/10 11:05:04;;;;;;;0.22;0.22;;;;;;;19.20;41.31;101789.94;5116500;27;20039;-37
2022/01/10 11:07:33;;;;;;;0.20;0.20;;;;;;;19.20;40.88;101787.16;5100970;27;20297;-38
2022/01/10 11:10:13;;;;;;;0.20;0.20;;;;;;;19.28;40.97;101792.22;5108616;27;20058;-40
2022/01/10 11:12:41;;;;;;;0.20;0.20;;;;;;;19.30;41.24;101795.56;5114433;27;20428;-42
2022/01/10 11:15:10;;;;;;;0.20;0.20;;;;;;;19.29;41.26;101791.94;5110502;27;20055;-38
2022/01/10 11:17:40;;;;;;;0.20;0.20;;;;;;;19.29;41.38;101788.34;5114722;27;20047;-37
2022/01/10 11:20:10;;;;;;;0.20;0.20;;;;;;;19.31;41.16;101800.00;5114299;27;20319;-37
2022/01/10 11:22:39;;;;;;;0.20;0.20;;;;;;;19.32;41.24;101796.13;5092630;27;20046;-39
2022/01/10 11:25:05;;;;;;;0.20;0.20;;;;;;;19.33;41.07;101796.97;5091564;27;20124;-41
2022/01/10 11:27:36;;;;;;;0.20;0.20;;;;;;;19.33;41.09;101795.03;5113839;27;20062;-37
2022/01/10 11:33:11;;;;;;;0.20;0.20;;;;;;;19.24;36.53;101814.00;5157513;27;20205;-40